createdAt,value
2023-04-14T00:01:00.137Z,92964.31
2023-04-14T00:03:27.119Z,92967.66
2023-04-14T00:05:54.011Z,92957.66
2023-04-14T00:08:20.836Z,92945.84
2023-04-14T00:10:47.649Z,92944.63
2023-04-14T00:13:14.286Z,92944.63
2023-04-14T00:15:43.943Z,92951.72
2023-04-14T00:18:10.652Z,92958.81
2023-04-14T00:20:37.625Z,92941.06
2023-04-14T00:23:04.331Z,92938.31
2023-04-14T00:25:32.036Z,92930.47
2023-04-14T00:27:58.885Z,92932.03
2023-04-14T00:30:25.724Z,92936.78
2023-04-14T00:32:52.573Z,92923.38
2023-04-14T00:35:19.343Z,92921.81
2023-04-14T00:37:46.068Z,92924.53
2023-04-14T00:40:13.383Z,92924.34
2023-04-14T00:42:47.109Z,92932.03
2023-04-14T00:45:15.236Z,92930.84
2023-04-14T00:47:47.173Z,92929.66
2023-04-14T00:50:18.819Z,92912.13
2023-04-14T00:52:48.074Z,92930.06
2023-04-14T00:55:16.676Z,92945.84
2023-04-14T00:57:43.492Z,92940.50
2023-04-14T01:00:11.634Z,92934.97
2023-04-14T01:02:38.937Z,92947.41
2023-04-14T01:05:06.103Z,92954.50
2023-04-14T01:07:33.062Z,92958.81
2023-04-14T01:10:01.076Z,92948.56
2023-04-14T01:12:49.342Z,92953.69
2023-04-14T01:15:37.115Z,92952.53
2023-04-14T01:18:20.667Z,92948.19
2023-04-14T01:20:50.596Z,92948.97
2023-04-14T01:23:23.873Z,92946.22
2023-04-14T01:26:21.717Z,92941.69
2023-04-14T01:29:20.317Z,92928.88
2023-04-14T01:32:06.466Z,92903.28
2023-04-14T01:34:53.857Z,92924.56
2023-04-14T01:37:34.172Z,92922.38
2023-04-14T01:40:12.810Z,92922.97
2023-04-14T01:42:44.924Z,92918.03
2023-04-14T01:45:17.077Z,92917.47
2023-04-14T01:47:44.467Z,92924.91
2023-04-14T01:50:12.110Z,92921.78
2023-04-14T01:52:40.192Z,92919.44
2023-04-14T01:55:07.936Z,92921.78
2023-04-14T01:57:36.466Z,92914.09
2023-04-14T02:00:05.118Z,92910.38
2023-04-14T02:02:32.878Z,92908.41
2023-04-14T02:05:00.035Z,92901.72
2023-04-14T02:07:27.933Z,92896.59
2023-04-14T02:09:56.454Z,92889.09
2023-04-14T02:12:23.945Z,92887.50
2023-04-14T02:14:52.139Z,92894.59
2023-04-14T02:17:19.739Z,92888.72
2023-04-14T02:19:47.810Z,92893.44
2023-04-14T02:22:14.680Z,92889.09
2023-04-14T02:24:41.499Z,92896.00
2023-04-14T02:27:11.504Z,92899.34
2023-04-14T02:29:42.339Z,92888.50
2023-04-14T02:32:14.731Z,92891.06
2023-04-14T02:35:07.094Z,92869.00
2023-04-14T02:37:38.026Z,92873.13
2023-04-14T02:40:12.583Z,92870.78
2023-04-14T02:42:41.840Z,92882.78
2023-04-14T02:45:13.435Z,92876.28
2023-04-14T02:47:42.269Z,92847.34
2023-04-14T02:50:13.033Z,92857.78
2023-04-14T02:52:40.976Z,92836.91
2023-04-14T02:55:08.075Z,92833.94
2023-04-14T02:57:35.312Z,92841.63
2023-04-14T03:00:02.318Z,92841.22
2023-04-14T03:02:29.691Z,92847.72
2023-04-14T03:04:56.529Z,92841.81
2023-04-14T03:07:23.994Z,92832.78
2023-04-14T03:09:51.883Z,92835.94
2023-04-14T03:12:19.648Z,92835.53
2023-04-14T03:14:47.486Z,92835.31
2023-04-14T03:17:15.095Z,92831.22
2023-04-14T03:19:42.942Z,92844.41
2023-04-14T03:22:11.248Z,92854.63
2023-04-14T03:24:39.353Z,92860.94
2023-04-14T03:27:15.432Z,92864.06
2023-04-14T03:29:45.821Z,92874.91
2023-04-14T03:32:14.118Z,92876.28
2023-04-14T03:34:47.296Z,92883.56
2023-04-14T03:37:17.244Z,92873.13
2023-04-14T03:39:45.756Z,92887.13
2023-04-14T03:42:13.324Z,92870.19
2023-04-14T03:44:43.166Z,92865.25
2023-04-14T03:47:10.782Z,92862.31
2023-04-14T03:49:39.264Z,92856.78
2023-04-14T03:52:08.112Z,92844.19
2023-04-14T03:54:36.781Z,92827.84
2023-04-14T03:57:06.347Z,92848.53
2023-04-14T03:59:33.921Z,92852.47
2023-04-14T04:02:02.893Z,92850.09
2023-04-14T04:04:34.836Z,92848.13
2023-04-14T04:07:01.893Z,92845.78
2023-04-14T04:09:30.144Z,92841.06
2023-04-14T04:12:00.222Z,92832.00
2023-04-14T04:14:28.293Z,92832.38
2023-04-14T04:16:56.136Z,92831.19
2023-04-14T04:19:23.924Z,92838.88
2023-04-14T04:21:53.842Z,92828.84
2023-04-14T04:24:22.278Z,92815.44
2023-04-14T04:26:49.037Z,92811.91
2023-04-14T04:29:15.821Z,92811.50
2023-04-14T04:31:42.982Z,92820.16
2023-04-14T04:34:09.863Z,92811.94
2023-04-14T04:36:37.204Z,92825.28
2023-04-14T04:39:04.030Z,92833.75
2023-04-14T04:41:31.097Z,92833.19
2023-04-14T04:43:59.125Z,92829.63
2023-04-14T04:46:46.791Z,92836.53
2023-04-14T04:49:13.441Z,92840.66
2023-04-14T04:51:40.205Z,92846.16
2023-04-14T04:54:07.062Z,92851.88
2023-04-14T04:56:34.150Z,92860.16
2023-04-14T04:59:01.244Z,92858.56
2023-04-14T05:01:28.456Z,92843.81
2023-04-14T05:03:55.539Z,92828.84
2023-04-14T05:06:22.341Z,92844.97
2023-04-14T05:08:51.662Z,92857.19
2023-04-14T05:11:18.364Z,92860.72
2023-04-14T05:13:45.071Z,92839.06
2023-04-14T05:16:15.056Z,92839.66
2023-04-14T05:18:42.781Z,92831.19
2023-04-14T05:21:13.183Z,92817.63
2023-04-14T05:23:42.351Z,92815.25
2023-04-14T05:26:31.029Z,92821.56
2023-04-14T05:28:56.794Z,92826.88
2023-04-14T05:31:23.754Z,92830.00
2023-04-14T05:33:50.436Z,92829.03
2023-04-14T05:36:17.436Z,92836.13
2023-04-14T05:38:44.640Z,92835.16
2023-04-14T05:41:12.174Z,92822.34
2023-04-14T05:43:38.956Z,92833.97
2023-04-14T05:46:05.902Z,92825.69
2023-04-14T05:48:33.666Z,92834.56
2023-04-14T05:51:00.603Z,92827.28
2023-04-14T05:53:27.968Z,92828.25
2023-04-14T05:55:54.864Z,92840.25
2023-04-14T05:58:21.722Z,92838.66
2023-04-14T06:00:48.507Z,92841.81
2023-04-14T06:03:16.887Z,92833.94
2023-04-14T06:05:43.937Z,92835.53
2023-04-14T06:08:11.014Z,92823.69
2023-04-14T06:10:37.785Z,92819.16
2023-04-14T06:13:04.525Z,92828.44
2023-04-14T06:15:31.651Z,92835.72
2023-04-14T06:17:58.506Z,92844.38
2023-04-14T06:20:25.844Z,92833.56
2023-04-14T06:22:52.663Z,92843.38
2023-04-14T06:25:19.549Z,92837.09
2023-04-14T06:27:46.362Z,92839.22
2023-04-14T06:30:15.404Z,92822.50
2023-04-14T06:32:42.256Z,92831.16
2023-04-14T06:35:16.471Z,92821.72
2023-04-14T06:37:49.103Z,92816.63
2023-04-14T06:40:15.884Z,92822.50
2023-04-14T06:42:42.626Z,92839.63
2023-04-14T06:45:09.876Z,92850.09
2023-04-14T06:47:36.713Z,92845.34
2023-04-14T06:50:04.061Z,92845.75
2023-04-14T06:52:30.811Z,92853.03
2023-04-14T06:54:57.526Z,92827.63
2023-04-14T06:57:24.295Z,92831.72
2023-04-14T06:59:51.464Z,92834.88
2023-04-14T07:02:18.669Z,92817.72
2023-04-14T07:04:45.428Z,92828.34
2023-04-14T07:07:14.438Z,92826.78
2023-04-14T07:09:44.197Z,92835.84
2023-04-14T07:12:14.886Z,92814.59
2023-04-14T07:14:41.682Z,92815.63
2023-04-14T07:17:09.009Z,92840.03
2023-04-14T07:19:35.649Z,92832.53
2023-04-14T07:22:02.757Z,92833.50
2023-04-14T07:24:29.538Z,92815.75
2023-04-14T07:26:56.237Z,92816.53
2023-04-14T07:29:22.939Z,92816.56
2023-04-14T07:31:49.618Z,92803.31
2023-04-14T07:34:16.497Z,92808.59
2023-04-14T07:36:43.195Z,92809.97
2023-04-14T07:39:10.562Z,92803.28
2023-04-14T07:41:37.625Z,92812.16
2023-04-14T07:44:04.500Z,92815.16
2023-04-14T07:46:31.708Z,92821.63
2023-04-14T07:48:59.112Z,92817.72
2023-04-14T07:51:26.002Z,92813.16
2023-04-14T07:53:53.228Z,92827.91
2023-04-14T07:56:19.940Z,92827.06
2023-04-14T07:58:46.609Z,92823.31
2023-04-14T08:01:14.317Z,92837.88
2023-04-14T08:03:42.935Z,92813.31
2023-04-14T08:06:11.916Z,92825.47
2023-04-14T08:08:40.066Z,92830.59
2023-04-14T08:11:06.775Z,92811.06
2023-04-14T08:13:33.516Z,92806.28
2023-04-14T08:16:00.257Z,92831.13
2023-04-14T08:18:27.539Z,92818.53
2023-04-14T08:20:54.250Z,92819.88
2023-04-14T08:23:21.456Z,92825.41
2023-04-14T08:25:48.498Z,92831.72
2023-04-14T08:28:15.163Z,92851.88
2023-04-14T08:30:42.032Z,92830.56
2023-04-14T08:33:08.768Z,92832.50
2023-04-14T08:35:42.031Z,92844.34
2023-04-14T08:38:10.025Z,92852.44
2023-04-14T08:40:41.226Z,92864.09
2023-04-14T08:43:08.222Z,92852.31
2023-04-14T08:45:35.714Z,92846.00
2023-04-14T08:48:03.726Z,92851.28
2023-04-14T08:50:33.890Z,92856.03
2023-04-14T08:53:04.218Z,92860.91
2023-04-14T08:55:32.672Z,92860.50
2023-04-14T08:58:01.284Z,92872.41
2023-04-14T09:00:28.165Z,92873.56
2023-04-14T09:02:55.752Z,92857.41
2023-04-14T09:05:22.752Z,92857.34
2023-04-14T09:07:49.786Z,92855.78
2023-04-14T09:10:17.118Z,92862.06
2023-04-14T09:12:44.237Z,92869.56
2023-04-14T09:15:11.975Z,92861.28
2023-04-14T09:17:38.749Z,92860.09
2023-04-14T09:20:36.000Z,92871.88
2023-04-14T09:22:53.171Z,92862.78
2023-04-14T09:25:20.449Z,92859.06
2023-04-14T09:27:49.382Z,92856.13
2023-04-14T09:30:17.854Z,92867.53
2023-04-14T09:32:45.302Z,92869.56
2023-04-14T09:35:16.329Z,92866.53
2023-04-14T09:37:44.712Z,92850.38
2023-04-14T09:40:12.148Z,92844.25
2023-04-14T09:42:40.717Z,92845.81
2023-04-14T09:45:08.511Z,92850.34
2023-04-14T09:47:35.331Z,92850.38
2023-04-14T09:50:04.687Z,92844.44
2023-04-14T09:52:39.801Z,92852.03
2023-04-14T09:55:11.927Z,92821.88
2023-04-14T09:57:42.449Z,92842.53
2023-04-14T10:00:29.480Z,92849.94
2023-04-14T10:02:59.252Z,92839.38
2023-04-14T10:05:31.241Z,92854.19
2023-04-14T10:08:04.719Z,92837.16
2023-04-14T10:10:31.797Z,92843.66
2023-04-14T10:13:00.146Z,92843.72
2023-04-14T10:15:27.785Z,92839.38
2023-04-14T10:17:54.616Z,92835.56
2023-04-14T10:20:21.857Z,92831.66
2023-04-14T10:22:48.570Z,92835.53
2023-04-14T10:25:15.510Z,92830.16
2023-04-14T10:27:43.174Z,92835.03
2023-04-14T10:30:10.422Z,92837.88
2023-04-14T10:32:38.224Z,92845.06
2023-04-14T10:35:07.620Z,92837.59
2023-04-14T10:37:35.254Z,92847.59
2023-04-14T10:40:05.580Z,92842.78
2023-04-14T10:42:51.900Z,92846.75
2023-04-14T10:45:18.888Z,92847.34
2023-04-14T10:47:46.484Z,92841.78
2023-04-14T10:50:14.736Z,92845.34
2023-04-14T10:52:56.049Z,92843.03
2023-04-14T10:55:24.639Z,92842.03
2023-04-14T10:57:52.219Z,92842.81
2023-04-14T11:00:25.365Z,92839.28
2023-04-14T11:03:11.115Z,92839.53
2023-04-14T11:05:45.691Z,92849.91
2023-04-14T11:08:24.664Z,92838.63
2023-04-14T11:11:01.350Z,92841.31
2023-04-14T11:13:29.647Z,92828.91
2023-04-14T11:16:07.464Z,92832.75
2023-04-14T11:18:37.539Z,92840.34
2023-04-14T11:21:10.881Z,92828.63
2023-04-14T11:23:38.745Z,92829.63
2023-04-14T11:26:09.850Z,92840.50
2023-04-14T11:28:38.524Z,92845.50
2023-04-14T11:31:06.913Z,92839.84
2023-04-14T11:33:36.540Z,92852.50
2023-04-14T11:36:07.397Z,92847.25
2023-04-14T11:38:40.676Z,92840.28
2023-04-14T11:41:08.349Z,92843.78
2023-04-14T11:43:35.836Z,92841.03
2023-04-14T11:46:05.156Z,92837.19
2023-04-14T11:48:31.986Z,92835.09
2023-04-14T11:51:03.727Z,92844.72
2023-04-14T11:53:31.389Z,92831.53
2023-04-14T11:55:58.248Z,92831.16
2023-04-14T11:58:26.745Z,92828.66
2023-04-14T12:00:56.149Z,92828.75
2023-04-14T12:03:28.032Z,92831.72
2023-04-14T12:06:00.058Z,92824.91
2023-04-14T12:08:30.398Z,92820.69
2023-04-14T12:10:57.896Z,92826.97
2023-04-14T12:13:25.041Z,92833.53
2023-04-14T12:15:52.964Z,92833.69
2023-04-14T12:20:56.473Z,92833.69
2023-04-14T12:23:24.284Z,92837.28
2023-04-14T12:25:52.194Z,92844.19
2023-04-14T12:28:29.737Z,92841.69
2023-04-14T12:30:59.695Z,92835.69
2023-04-14T12:33:30.530Z,92838.09
2023-04-14T12:36:05.397Z,92846.72
2023-04-14T12:38:33.201Z,92834.53
2023-04-14T12:41:00.638Z,92838.63
2023-04-14T12:43:38.706Z,92839.47
2023-04-14T12:46:05.941Z,92846.63
2023-04-14T12:48:51.757Z,92834.41
2023-04-14T12:51:19.918Z,92832.19
2023-04-14T12:53:48.232Z,92836.19
2023-04-14T12:56:16.541Z,92829.88
2023-04-14T12:58:48.716Z,92840.13
2023-04-14T13:01:21.067Z,92828.03
2023-04-14T13:03:51.753Z,92832.69
2023-04-14T13:06:20.456Z,92825.78
2023-04-14T13:08:52.230Z,92833.59
2023-04-14T13:11:21.408Z,92827.72
2023-04-14T13:13:48.826Z,92820.94
2023-04-14T13:16:18.026Z,92825.97
2023-04-14T13:18:46.905Z,92822.72
2023-04-14T13:21:13.889Z,92821.09
2023-04-14T13:23:41.404Z,92822.81
2023-04-14T13:26:09.116Z,92835.63
2023-04-14T13:28:37.305Z,92818.44
2023-04-14T13:31:04.281Z,92823.59
2023-04-14T13:33:32.166Z,92822.91
2023-04-14T13:35:59.042Z,92824.53
2023-04-14T13:38:25.834Z,92817.03
2023-04-14T13:40:52.755Z,92829.09
2023-04-14T13:43:19.739Z,92823.00
2023-04-14T13:45:47.282Z,92816.63
2023-04-14T13:48:14.813Z,92812.88
2023-04-14T13:50:42.057Z,92813.91
2023-04-14T13:53:09.293Z,92811.91
2023-04-14T13:55:36.408Z,92808.69
2023-04-14T13:58:03.435Z,92794.63
2023-04-14T14:00:30.527Z,92805.78
2023-04-14T14:02:57.506Z,92807.69
2023-04-14T14:05:24.531Z,92805.59
2023-04-14T14:07:51.557Z,92804.94
2023-04-14T14:10:18.651Z,92795.78
2023-04-14T14:12:45.595Z,92793.22
2023-04-14T14:15:12.527Z,92805.38
2023-04-14T14:17:39.486Z,92806.06
2023-04-14T14:20:08.332Z,92798.44
2023-04-14T14:22:35.465Z,92799.94
2023-04-14T14:25:18.469Z,92789.63
2023-04-14T14:27:48.398Z,92795.34
2023-04-14T14:30:15.830Z,92803.88
2023-04-14T14:32:42.707Z,92804.03
2023-04-14T14:35:09.716Z,92806.66
2023-04-14T14:37:36.793Z,92794.72
2023-04-14T14:40:04.123Z,92808.59
2023-04-14T14:42:31.222Z,92801.66
2023-04-14T14:44:57.934Z,92797.53
2023-04-14T14:47:24.809Z,92803.75
2023-04-14T14:49:59.680Z,92804.59
2023-04-14T14:52:34.216Z,92801.31
2023-04-14T14:55:01.575Z,92794.50
2023-04-14T14:57:29.351Z,92796.31
2023-04-14T14:59:56.311Z,92804.16
2023-04-14T15:02:23.280Z,92790.94
2023-04-14T15:04:50.300Z,92788.00
2023-04-14T15:07:17.665Z,92789.94
2023-04-14T15:09:46.644Z,92795.78
2023-04-14T15:12:13.477Z,92799.69
2023-04-14T15:14:40.277Z,92796.84
2023-04-14T15:17:07.208Z,92796.06
2023-04-14T15:19:33.918Z,92799.69
2023-04-14T15:22:01.652Z,92803.97
2023-04-14T15:24:28.744Z,92804.41
2023-04-14T15:26:56.223Z,92800.09
2023-04-14T15:29:25.164Z,92807.75
2023-04-14T15:31:52.050Z,92800.28
2023-04-14T15:34:18.928Z,92795.16
2023-04-14T15:36:45.939Z,92797.44
2023-04-14T15:39:12.758Z,92791.75
2023-04-14T15:41:39.461Z,92796.13
2023-04-14T15:44:06.281Z,92799.44
2023-04-14T15:46:33.082Z,92785.38
2023-04-14T15:48:59.750Z,92789.06
2023-04-14T15:51:26.468Z,92785.16
2023-04-14T15:53:53.220Z,92789.03
2023-04-14T15:56:23.290Z,92791.88
2023-04-14T15:58:50.593Z,92789.50
2023-04-14T16:01:17.521Z,92793.16
2023-04-14T16:03:44.498Z,92785.97
2023-04-14T16:06:11.550Z,92796.03
2023-04-14T16:08:38.433Z,92791.59
2023-04-14T16:11:05.180Z,92795.22
2023-04-14T16:13:32.025Z,92792.59
2023-04-14T16:15:58.849Z,92789.22
2023-04-14T16:18:25.937Z,92785.72
2023-04-14T16:20:53.560Z,92788.97
2023-04-14T16:23:20.710Z,92794.03
2023-04-14T16:25:50.782Z,92787.75
2023-04-14T16:28:17.593Z,92793.59
2023-04-14T16:30:45.865Z,92796.59
2023-04-14T16:33:13.203Z,92795.34
2023-04-14T16:35:40.296Z,92799.34
2023-04-14T16:38:08.784Z,92800.47
2023-04-14T16:40:36.239Z,92797.63
2023-04-14T16:43:03.688Z,92788.00
2023-04-14T16:45:34.873Z,92798.63
2023-04-14T16:48:02.130Z,92796.03
2023-04-14T16:50:29.570Z,92788.34
2023-04-14T16:52:56.686Z,92780.28
2023-04-14T16:55:23.674Z,92784.06
2023-04-14T16:57:50.880Z,92779.50
2023-04-14T17:00:17.892Z,92773.34
2023-04-14T17:02:44.711Z,92780.56
2023-04-14T17:05:13.368Z,92774.69
2023-04-14T17:07:40.103Z,92785.66
2023-04-14T17:10:07.254Z,92793.00
2023-04-14T17:12:34.572Z,92787.28
2023-04-14T17:15:01.225Z,92790.59
2023-04-14T17:17:28.565Z,92776.22
2023-04-14T17:19:56.819Z,92779.22
2023-04-14T17:22:24.067Z,92778.22
2023-04-14T17:24:51.117Z,92782.72
2023-04-14T17:27:18.012Z,92782.66
2023-04-14T17:29:44.654Z,92786.44
2023-04-14T17:32:11.611Z,92775.38
2023-04-14T17:34:38.333Z,92782.41
2023-04-14T17:37:05.048Z,92779.56
2023-04-14T17:39:31.885Z,92774.72
2023-04-14T17:41:58.697Z,92783.78
2023-04-14T17:44:33.255Z,92771.59
2023-04-14T17:47:06.775Z,92781.50
2023-04-14T17:49:34.195Z,92781.50
2023-04-14T17:52:01.369Z,92791.47
2023-04-14T17:54:29.270Z,92776.78
2023-04-14T17:56:56.865Z,92776.78
2023-04-14T17:59:23.567Z,92782.28
2023-04-14T18:01:50.413Z,92781.97
2023-04-14T18:04:17.170Z,92789.88
2023-04-14T18:06:43.845Z,92786.41
2023-04-14T18:09:11.285Z,92785.41
2023-04-14T18:11:38.196Z,92788.31
2023-04-14T18:14:04.919Z,92793.31
2023-04-14T18:16:31.583Z,92788.03
2023-04-14T18:18:58.445Z,92796.72
2023-04-14T18:21:25.138Z,92797.31
2023-04-14T18:28:51.703Z,92790.19
2023-04-14T18:31:18.443Z,92787.41
2023-04-14T18:33:45.242Z,92789.75
2023-04-14T18:36:12.076Z,92779.75
2023-04-14T18:38:38.718Z,92790.97
2023-04-14T18:41:05.505Z,92796.00
2023-04-14T18:43:32.896Z,92788.03
2023-04-14T18:45:59.875Z,92791.44
2023-04-14T18:48:26.643Z,92797.16
2023-04-14T18:51:02.318Z,92788.84
2023-04-14T18:53:29.308Z,92790.44
2023-04-14T18:55:56.017Z,92792.44
2023-04-14T18:58:23.061Z,92792.84
2023-04-14T19:00:49.690Z,92792.44
2023-04-14T19:03:17.077Z,92793.63
2023-04-14T19:05:44.201Z,92787.38
2023-04-14T19:08:10.903Z,92794.50
2023-04-14T19:10:37.677Z,92786.56
2023-04-14T19:13:04.394Z,92793.06
2023-04-14T19:15:31.015Z,92779.44
2023-04-14T19:17:57.842Z,92779.00
2023-04-14T19:20:25.370Z,92776.44
2023-04-14T19:22:52.141Z,92764.03
2023-04-14T19:25:19.487Z,92779.00
2023-04-14T19:27:46.159Z,92766.03
2023-04-14T19:30:13.849Z,92769.59
2023-04-14T19:32:41.931Z,92762.88
2023-04-14T19:35:09.371Z,92758.34
2023-04-14T19:37:36.230Z,92760.63
2023-04-14T19:40:06.249Z,92747.41
2023-04-14T19:42:33.470Z,92740.28
2023-04-14T19:45:00.683Z,92732.38
2023-04-14T19:47:27.657Z,92741.75
2023-04-14T19:49:55.330Z,92741.16
2023-04-14T19:52:22.529Z,92730.81
2023-04-14T19:54:49.691Z,92744.75
2023-04-14T19:57:16.883Z,92735.31
2023-04-14T19:59:44.380Z,92753.13
2023-04-14T20:02:13.399Z,92749.94
2023-04-14T20:04:40.415Z,92756.50
2023-04-14T20:07:07.406Z,92751.78
2023-04-14T20:09:34.720Z,92752.66
2023-04-14T20:12:02.497Z,92749.72
2023-04-14T20:14:29.435Z,92738.50
2023-04-14T20:16:56.744Z,92747.97
2023-04-14T20:19:24.044Z,92737.50
2023-04-14T20:21:51.056Z,92735.81
2023-04-14T20:24:17.958Z,92736.94
2023-04-14T20:26:45.083Z,92734.25
2023-04-14T20:29:12.273Z,92731.53
2023-04-14T20:31:39.720Z,92732.09
2023-04-14T20:34:06.501Z,92721.81
2023-04-14T20:36:36.071Z,92719.44
2023-04-14T20:39:05.751Z,92727.16
2023-04-14T20:41:33.796Z,92738.91
2023-04-14T20:44:00.866Z,92736.00
2023-04-14T20:46:28.069Z,92718.34
2023-04-14T20:48:55.047Z,92746.84
2023-04-14T20:51:21.685Z,92742.28
2023-04-14T20:53:49.053Z,92727.94
2023-04-14T20:56:15.890Z,92714.69
2023-04-14T20:58:42.592Z,92724.16
2023-04-14T21:01:09.424Z,92718.38
2023-04-14T21:03:36.341Z,92716.97
2023-04-14T21:06:03.121Z,92726.56
2023-04-14T21:08:29.855Z,92731.66
2023-04-14T21:11:16.111Z,92729.66
2023-04-14T21:15:39.957Z,92736.44
2023-04-14T21:16:30.512Z,92719.91
2023-04-14T21:18:57.541Z,92726.22
2023-04-14T21:21:24.412Z,92727.19
2023-04-14T21:23:51.301Z,92724.44
2023-04-14T21:26:17.961Z,92727.06
2023-04-14T21:28:44.613Z,92729.78
2023-04-14T21:31:11.535Z,92732.34
2023-04-14T21:33:40.055Z,92728.78
2023-04-14T21:36:07.144Z,92724.34
2023-04-14T21:38:33.844Z,92721.69
2023-04-14T21:41:00.922Z,92725.25
2023-04-14T21:43:28.754Z,92730.75
2023-04-14T21:45:56.230Z,92730.97
2023-04-14T21:48:23.973Z,92728.31
2023-04-14T21:50:50.686Z,92730.09
2023-04-14T21:53:17.467Z,92726.88
2023-04-14T21:55:44.171Z,92713.97
2023-04-14T21:58:11.283Z,92727.44
2023-04-14T22:00:37.910Z,92728.81
2023-04-14T22:03:04.900Z,92709.41
2023-04-14T22:05:31.749Z,92714.69
2023-04-14T22:07:58.399Z,92708.75
2023-04-14T22:10:31.814Z,92707.75
2023-04-14T22:12:59.965Z,92697.13
2023-04-14T22:15:27.538Z,92700.06
2023-04-14T22:17:54.835Z,92706.97
2023-04-14T22:20:23.231Z,92690.13
2023-04-14T22:22:49.882Z,92687.06
2023-04-14T22:25:16.784Z,92698.50
2023-04-14T22:27:43.387Z,92693.00
2023-04-14T22:30:10.848Z,92687.56
2023-04-14T22:32:37.473Z,92690.56
2023-04-14T22:35:04.646Z,92688.84
2023-04-14T22:37:31.324Z,92690.91
2023-04-14T22:39:57.902Z,92695.94
2023-04-14T22:42:25.893Z,92692.00
2023-04-14T22:44:53.598Z,92694.78
2023-04-14T22:47:20.845Z,92700.56
2023-04-14T22:49:47.444Z,92703.06
2023-04-14T22:52:14.157Z,92702.28
2023-04-14T22:54:40.725Z,92714.38
2023-04-14T22:57:07.490Z,92706.56
2023-04-14T22:59:34.072Z,92709.38
2023-04-14T23:02:01.033Z,92715.09
2023-04-14T23:04:27.752Z,92706.81
2023-04-14T23:06:54.455Z,92698.84
2023-04-14T23:09:21.305Z,92714.69
2023-04-14T23:11:48.592Z,92719.44
2023-04-14T23:14:15.312Z,92720.03
2023-04-14T23:16:42.687Z,92723.22
2023-04-14T23:19:09.505Z,92714.94
2023-04-14T23:21:36.306Z,92723.06
2023-04-14T23:24:05.203Z,92718.50
2023-04-14T23:26:32.190Z,92725.22
2023-04-14T23:28:59.014Z,92713.03
2023-04-14T23:31:25.987Z,92723.38
2023-04-14T23:33:53.091Z,92716.44
2023-04-14T23:36:20.311Z,92716.44
2023-04-14T23:38:46.968Z,92712.09
2023-04-14T23:41:13.700Z,92717.63
2023-04-14T23:43:40.333Z,92722.47
2023-04-14T23:46:07.272Z,92721.28
2023-04-14T23:48:34.038Z,92720.00
2023-04-14T23:51:13.747Z,92710.50
2023-04-14T23:53:47.621Z,92713.66
2023-04-14T23:56:14.288Z,92707.94
2023-04-14T23:58:41.015Z,92694.13
